Alpha, California Weather observations

Data are for observation ending at time listed.
 Day   Time    Ave.   Ave.  Ave.  Vector   Max.   Stn.    Total    Solar   Ave.   Snow 
  of    of     Air    Rel.  Wind   Wind    Wind   Baro.  Precip.   Rad.    Soil   Depth
Year   Day     Temp.  Hum.  Speed  Dir.    Gust   Pres.                    Temp.       
2026   (PST)    F      %     mph   deg.    mph     mb.     in.     W/m2     F      in. 
---------------------------------------------------------------------------------------  
 124   16:50   32.6    93    1.7   341      4.2   780.5    0.00      43    999.0  999.0
 124   17:00   32.6    93    1.2   344      2.5   780.5    0.00      34    999.0  999.0
 124   17:10   32.7    93    1.1   329      2.9   780.4    0.00      21    999.0  999.0
 124   17:20   32.6    93    0.8   344      2.6   780.5    0.00       9    999.0  999.0
 124   17:30   32.5    93    0.9   348      2.3   780.5    0.00       5    999.0  999.0
 124   17:40   32.3    93    1.3   331      3.6   780.5    0.00       4    999.0  999.0
 124   17:50   32.2    93    0.9   336      3.1   780.4    0.00       3    999.0  999.0
 124   18:00   31.8    93    0.6   304      2.3   780.3    0.00       2    999.0  999.0
 124   18:10   31.5    93    0.2   313      0.9   780.2    0.00       1    999.0  999.0
 124   18:20   31.3    93    0.0     0      0.0   780.1    0.00       2    999.0  999.0
 124   18:30   31.2    93    0.0     0      0.0   780.1    0.00       2    999.0  999.0
 124   18:40   31.2    93    0.0     0      0.0   780.2    0.00       1    999.0  999.0
 124   18:50   31.0    93    0.0     0      0.0   780.2    0.00       0    999.0  999.0
 124   19:00   30.9    93    0.0     0      0.0   780.1    0.00       0    999.0  999.0
 124   19:10   30.9    93    0.0     0      0.0   780.1    0.00       0    999.0  999.0
 124   19:20   31.0    93    0.0     0      0.0   780.0    0.00       0    999.0  999.0
 124   19:30   30.9    93    0.0     0      0.0   780.1    0.00       0    999.0  999.0
 124   19:40   30.9    93    0.0     0      0.0   780.2    0.00       0    999.0  999.0
 124   19:50   30.8    94    0.0     0      0.0   780.3    0.00       0    999.0  999.0
 124   20:00   30.5    94    0.0     0      0.0   780.4    0.00       0    999.0  999.0
 124   20:10   30.3    94    0.0     0      0.0   780.4    0.00       0    999.0  999.0
 124   20:20   30.0    94    0.0     0      0.0   780.3    0.00       0    999.0  999.0
 124   20:30   30.0    94    0.0     0      0.0   780.4    0.00       0    999.0  999.0
 124   20:40   30.1    94    0.0     0      0.0   780.5    0.00       0    999.0  999.0
 124   20:50   30.0    94    0.0     0      0.0   780.4    0.00       0    999.0  999.0
 124   21:00   30.0    94    0.0     0      0.0   780.3    0.00       0    999.0  999.0
 124   21:10   30.0    94    0.0     0      0.0   780.2    0.00       0    999.0  999.0
 124   21:20   30.0    94    0.0     0      0.0   780.1    0.00       0    999.0  999.0
 124   21:30   30.0    94    0.0     0      0.0   780.1    0.00       0    999.0  999.0
 124   21:40   30.1    94    0.0     0      0.0   780.1    0.00       0    999.0  999.0
 124   21:50   29.9    94    0.0     0      0.0   780.1    0.00       0    999.0  999.0
 124   22:00   29.2    94    0.0     0      0.0   780.1    0.00       0    999.0  999.0
 124   22:10   29.2    94    0.0     0      0.0   780.1    0.00       0    999.0  999.0
 124   22:20   29.5    94    0.0     0      0.0   780.0    0.00       0    999.0  999.0
 124   22:30   29.8    94    0.0     0      0.0   779.9    0.00       0    999.0  999.0
 124   22:40   29.9    94    0.0     0      0.0   779.9    0.00       0    999.0  999.0
 124   22:50   30.0    94    0.0     0      0.0   779.9    0.00       0    999.0  999.0
 124   23:00   30.1    94    0.0     0      0.0   779.9    0.00       0    999.0  999.0
 124   23:10   30.3    94    0.0     0      0.0   779.9    0.00       0    999.0  999.0
 124   23:20   30.2    94    0.0     0      0.0   780.0    0.00       0    999.0  999.0
 124   23:30   30.3    94    0.0     0      0.0   780.1    0.00       0    999.0  999.0
 124   23:40   30.3    94    0.0     0      0.0   780.2    0.00       0    999.0  999.0
 124   23:50   30.3    94    0.0     0      0.0   780.1    0.00       0    999.0  999.0
 125    0:00   30.2    94    0.0     0      0.0   780.0    0.00       0    999.0  999.0
 125    0:10   30.0    94    0.0     0      0.0   780.0    0.00       0    999.0  999.0
 125    0:20   29.8    94    0.0     0      0.0   780.0    0.00       0    999.0  999.0
 125    0:30   29.6    94    0.0     0      0.0   779.9    0.00       0    999.0  999.0
 125    0:40   29.6    94    0.0     0      0.0   779.7    0.00       0    999.0  999.0
 125    0:50   29.6    94    0.0     0      0.0   779.7    0.00       0    999.0  999.0
 125    1:00   29.6    94    0.0     0      0.0   779.7    0.00       0    999.0  999.0
 125    1:10   29.5    94    0.0     0      0.0   779.7    0.00       0    999.0  999.0
 125    1:20   29.7    94    0.0     0      0.0   779.7    0.00       0    999.0  999.0
 125    1:30   29.9    94    0.0     0      0.0   779.8    0.00       0    999.0  999.0
 125    1:40   30.1    94    0.0     0      0.0   779.5    0.00       0    999.0  999.0
 125    1:50   30.4    94    0.0     0      0.0   779.4    0.00       0    999.0  999.0
 125    2:00   30.6    94    0.0     0      0.0   779.3    0.00       0    999.0  999.0
 125    2:10   30.2    94    0.0     0      0.0   779.3    0.00       0    999.0  999.0
 125    2:20   29.9    94    0.0     0      0.0   779.3    0.00       0    999.0  999.0
 125    2:30   29.8    94    0.0     0      0.0   779.2    0.00       0    999.0  999.0
 125    2:40   29.8    94    0.0     0      0.0   779.3    0.00       0    999.0  999.0
 125    2:50   29.9    94    0.0     0      0.0   779.2    0.00       0    999.0  999.0
 125    3:00   30.0    94    0.0     0      0.0   779.1    0.00       0    999.0  999.0
 125    3:10   30.3    94    0.0     0      0.0   779.0    0.00       0    999.0  999.0
 125    3:20   30.3    94    0.0     0      0.0   779.1    0.00       0    999.0  999.0
 125    3:30   30.3    94    0.0     0      0.0   779.1    0.00       0    999.0  999.0
 125    3:40   30.2    94    0.0     0      0.0   779.1    0.00       0    999.0  999.0
 125    3:50   30.2    94    0.0     0      0.0   779.0    0.00       0    999.0  999.0
 125    4:00   30.2    94    0.0     0      0.0   779.0    0.00       0    999.0  999.0
 125    4:10   30.2    94    0.0     0      0.0   779.0    0.00       0    999.0  999.0
 125    4:20   30.0    94    0.0     0      0.0   779.0    0.00       0    999.0  999.0
 125    4:30   29.7    94    0.0     0      0.0   779.1    0.00       0    999.0  999.0
 125    4:40   29.7    94    0.0     0      0.0   779.2    0.00       0    999.0  999.0
 125    4:50   29.7    94    0.0     0      0.0   779.2    0.00       0    999.0  999.0
 125    5:00   29.7    94    0.0     0      0.0   779.2    0.00       0    999.0  999.0
 125    5:10   29.8    94    0.0     0      0.0   779.2    0.00       0    999.0  999.0
 125    5:20   30.0    94    0.0     0      0.0   779.1    0.00       0    999.0  999.0
 125    5:30   30.2    94    0.0     0      0.0   779.2    0.00       1    999.0  999.0
 125    5:40   30.1    94    0.0     0      0.0   779.3    0.00       1    999.0  999.0
 125    5:50   30.0    94    0.0     0      0.0   779.4    0.00       1    999.0  999.0
 125    6:00   30.4    94    0.0     0      0.0   779.5    0.00       2    999.0  999.0
 125    6:10   30.8    94    0.0     0      0.0   779.6    0.00       2    999.0  999.0
 125    6:20   31.0    94    0.0     0      0.0   779.5    0.00       3    999.0  999.0
 125    6:30   31.3    93    0.0    30      0.6   779.6    0.00       5    999.0  999.0
 125    6:40   31.4    93    0.0     0      0.0   779.7    0.00       4    999.0  999.0
 125    6:50   31.8    93    0.0    16      0.2   779.8    0.00       7    999.0  999.0
 125    7:00   32.5    93    0.0     0      0.0   779.8    0.00       8    999.0  999.0
 125    7:10   33.2    93    0.0     0      0.0   779.9    0.00       8    999.0  999.0
 125    7:20   33.7    93    0.2    19      2.3   780.1    0.00       9    999.0  999.0
 125    7:30   33.8    93    1.1   113      3.8   780.2    0.00       9    999.0  999.0
 125    7:40   33.5    93    2.7   149      5.4   780.4    0.00       9    999.0  999.0
 125    7:50   33.4    93    2.4   154      4.7   780.4    0.00       9    999.0  999.0
 125    8:00   33.8    93    1.5   138      2.9   780.4    0.00      14    999.0  999.0
 125    8:10   36.1    93    0.6   134      2.9   780.4    0.00      17    999.0  999.0
 125    8:20   36.2    93    0.6    34      2.5   780.5    0.00      22    999.0  999.0
 125    8:30   38.0    92    0.5   333      1.7   780.5    0.00      23    999.0  999.0
 125    8:40   39.0    91    1.4   334      4.7   780.6    0.00      41    999.0  999.0
 125    8:50   40.0    87    1.5   293      4.4   780.6    0.00      45    999.0  999.0
 125    9:00   39.4    86    1.9   287      3.3   780.8    0.00      49    999.0  999.0
 125    9:10   39.8    86    1.4   280      3.9   780.8    0.00      46    999.0  999.0
 125    9:20   39.5    87    1.0   291      3.2   780.9    0.00      41    999.0  999.0
 125    9:30   39.0    86    1.6   148      3.4   781.0    0.00      47    999.0  999.0
 125    9:40   38.9    85    1.6   179      2.6   781.1    0.00      49    999.0  999.0
 125    9:50   39.1    84    1.7   160      3.7   781.2    0.00      59    999.0  999.0
 125   10:00   39.7    82    2.0   158      3.4   781.4    0.00      75    999.0  999.0
 125   10:10   39.5    84    1.8   162      3.4   781.5    0.00     104    999.0  999.0
 125   10:20   39.6    84    2.1   161      4.1   781.6    0.00     132    999.0  999.0
 125   10:30   40.6    83    1.8   303      4.3   781.8    0.00     151    999.0  999.0
 125   10:40   41.3    82    1.7   215      3.3   781.8    0.00     184    999.0  999.0
 125   10:50   42.5    81    1.4   303      3.9   781.8    0.00     316    999.0  999.0
 125   11:00   42.7    78    1.8   274      4.5   781.9    0.00     202    999.0  999.0
 125   11:10   40.6    83    2.8   166      5.6   782.0    0.00     128    999.0  999.0
 125   11:20   39.9    84    3.5   181      5.0   782.1    0.00     177    999.0  999.0
 125   11:30   42.3    80    1.6   213      4.8   782.1    0.00     314    999.0  999.0
 125   11:40   43.1    76    2.4   192      5.1   782.2    0.00     188    999.0  999.0
 125   11:50   43.4    78    2.7   187      4.4   782.2    0.00     273    999.0  999.0
 125   12:00   43.9    76    2.5   177      4.1   782.2    0.00     344    999.0  999.0
 125   12:10   45.5    72    3.1   186      5.7   782.2    0.00     356    999.0  999.0
 125   12:20   44.2    77    2.7   179      5.1   782.2    0.00     243    999.0  999.0
 125   12:30   44.9    76    2.4   188      3.7   782.3    0.00     282    999.0  999.0
 125   12:40   44.2    77    3.5   143     10.1   782.3    0.00     254    999.0  999.0
 125   12:50   44.5    75    3.5    58      9.3   782.3    0.00     341    999.0  999.0
 125   13:00   44.6    76    3.0   340      9.8   782.4    0.00     255    999.0  999.0
 125   13:10   46.4    73    1.8   142      4.5   782.4    0.00     262    999.0  999.0
 125   13:20   45.9    68    4.5    94     10.1   782.5    0.00     328    999.0  999.0
 125   13:30   45.4    73    3.2    35     10.4   782.5    0.00     202    999.0  999.0
 125   13:40   45.3    74    2.1    17      5.3   782.5    0.00     190    999.0  999.0
 125   13:50   46.0    72    3.2    51      8.6   782.5    0.00     316    999.0  999.0
 125   14:00   45.8    70    2.5    35      6.7   782.5    0.00     178    999.0  999.0
 125   14:10   46.3    70    1.9   328      7.1   782.4    0.00     141    999.0  999.0
 125   14:20   45.5    76    2.1   227      5.3   782.4    0.00     145    999.0  999.0
 125   14:30   45.7    75    1.2   228      3.2   782.5    0.00     131    999.0  999.0
 125   14:40   45.7    76    2.3   268      6.9   782.4    0.00     214    999.0  999.0
 125   14:50   45.9    81    1.6   320      8.1   782.4    0.00     323    999.0  999.0
 125   15:00   46.5    80    2.5   311      6.6   782.4    0.00     231    999.0  999.0
 125   15:10   45.0    84    2.2   309      6.3   782.5    0.00     175    999.0  999.0
 125   15:20   45.4    83    1.9   330      5.0   782.5    0.00     145    999.0  999.0
 125   15:30   45.2    83    2.5   329      5.6   782.5    0.00     169    999.0  999.0
 125   15:40   46.2    81    1.6   324      3.8   782.5    0.00     194    999.0  999.0
 125   15:50   46.3    82    2.2   328      4.6   782.5    0.00     181    999.0  999.0
 125   16:00   45.9    82    2.8   334      5.3   782.5    0.00     115    999.0  999.0
 125   16:10   46.0    81    2.5   337      6.7   782.6    0.00      37    999.0  999.0
 125   16:20   45.9    79    3.2   332      7.7   782.7    0.00     115    999.0  999.0
 125   16:30   45.8    81    2.9   334      6.9   782.8    0.00     202    999.0  999.0
 125   16:40   46.3    80    2.9   336      5.5   782.8    0.00     178    999.0  999.0

Return to Alpha graphs page.


Western Regional Climate Center,wrcc@dri.edu